Time;durP1;ratioP1;P1;durP2;ratioP2;P2;SDS_P1;SDS_P2;PMS_P1;PMS_P2;Temp;Humidity;BMP_temperature;BMP_pressure;BME280_temperature;BME280_humidity;BME280_pressure;Samples;Min_cycle;Max_cycle;Signal;HPM_P1;HPM_P2
2023/06/12 00:00:51;;;;;;;6.85;6.13;;;;;;;19.34;38.96;101313.03;7400339;19;20031;-68
2023/06/12 00:03:23;;;;;;;7.90;6.47;;;;;;;19.29;38.82;101315.06;7400784;19;20363;-67
2023/06/12 00:05:52;;;;;;;7.60;5.60;;;;;;;19.23;38.88;101313.56;7401906;19;20015;-67
2023/06/12 00:08:22;;;;;;;8.70;5.38;;;;;;;19.18;38.98;101311.16;7401320;19;21122;-67
2023/06/12 00:10:50;;;;;;;9.38;5.75;;;;;;;19.14;39.09;101316.69;7400282;19;20035;-68
2023/06/12 00:13:19;;;;;;;8.45;5.53;;;;;;;19.09;38.92;101305.41;7400754;19;20018;-67
2023/06/12 00:15:47;;;;;;;10.27;5.40;;;;;;;19.02;39.00;101311.03;7400378;19;20027;-67
2023/06/12 00:18:17;;;;;;;8.80;5.68;;;;;;;18.98;39.08;101320.09;7401397;19;20018;-68
2023/06/12 00:20:48;;;;;;;8.50;5.35;;;;;;;18.92;38.95;101320.38;7401090;19;20015;-67
2023/06/12 00:23:17;;;;;;;7.30;5.95;;;;;;;18.87;39.25;101320.56;7399941;19;20478;-67
2023/06/12 00:25:46;;;;;;;6.85;5.22;;;;;;;18.81;39.63;101323.50;7401000;19;20010;-68
2023/06/12 00:28:21;;;;;;;8.82;5.47;;;;;;;18.78;39.54;101328.09;7398930;19;20038;-67
2023/06/12 00:30:50;;;;;;;6.22;5.38;;;;;;;18.70;39.47;101324.03;7399371;19;20105;-68
2023/06/12 00:33:19;;;;;;;6.25;5.05;;;;;;;18.66;39.54;101330.41;7398870;19;20019;-67
2023/06/12 00:35:50;;;;;;;9.05;5.38;;;;;;;18.61;39.95;101320.94;7398662;19;20018;-68
2023/06/12 00:38:19;;;;;;;6.22;5.05;;;;;;;18.56;39.63;101318.47;7400926;19;20011;-67
2023/06/12 00:40:48;;;;;;;7.20;5.63;;;;;;;18.51;39.72;101328.44;7401551;19;20028;-67
2023/06/12 00:43:16;;;;;;;5.72;5.13;;;;;;;18.45;39.90;101329.59;7401736;19;20019;-68
2023/06/12 00:45:45;;;;;;;7.00;5.57;;;;;;;18.39;40.02;101325.41;7415565;19;20027;-67
2023/06/12 00:48:13;;;;;;;6.32;5.72;;;;;;;18.35;40.17;101322.97;7412201;19;20022;-66
2023/06/12 00:50:44;;;;;;;6.97;5.57;;;;;;;18.31;40.34;101327.56;7412198;19;20364;-66
2023/06/12 00:53:15;;;;;;;13.38;5.85;;;;;;;18.26;40.49;101318.97;7413273;19;20022;-66
2023/06/12 00:55:44;;;;;;;5.65;5.15;;;;;;;18.23;40.33;101319.94;7413967;19;20027;-66
2023/06/12 00:58:13;;;;;;;7.38;5.80;;;;;;;18.20;40.08;101319.22;7414994;19;20024;-66
2023/06/12 01:00:41;;;;;;;6.05;5.30;;;;;;;18.17;39.94;101319.34;7413237;19;20028;-66
2023/06/12 01:03:14;;;;;;;6.30;4.85;;;;;;;18.14;40.25;101322.16;7413536;19;20508;-67
2023/06/12 01:05:45;;;;;;;8.10;5.50;;;;;;;18.09;40.24;101319.69;7414681;19;20039;-67
2023/06/12 01:08:22;;;;;;;5.60;4.97;;;;;;;18.05;40.16;101316.31;7415011;19;20376;-67
2023/06/12 01:10:54;;;;;;;5.72;5.15;;;;;;;18.01;40.34;101317.38;7412930;19;20031;-67
2023/06/12 01:13:23;;;;;;;5.75;5.10;;;;;;;17.98;40.27;101316.66;7412081;19;20419;-69
2023/06/12 01:15:52;;;;;;;5.95;5.32;;;;;;;17.92;40.57;101323.91;7408729;19;20036;-68
2023/06/12 01:18:21;;;;;;;6.28;5.30;;;;;;;17.87;40.58;101315.28;7408601;19;20031;-68
2023/06/12 01:20:50;;;;;;;9.07;5.53;;;;;;;17.84;40.45;101317.22;7408448;19;20021;-68
2023/06/12 01:23:46;;;;;;;5.60;5.10;;;;;;;17.78;40.53;101323.66;7407551;19;20018;-68
2023/06/12 01:26:38;;;;;;;5.32;4.40;;;;;;;17.70;40.65;101318.66;7406370;19;20023;-68
2023/06/12 01:29:42;;;;;;;5.85;4.93;;;;;;;17.65;40.86;101320.66;7406202;19;20419;-68
2023/06/12 01:32:16;;;;;;;6.50;5.38;;;;;;;17.59;40.98;101315.59;7405338;19;20037;-68
2023/06/12 01:34:53;;;;;;;5.80;5.20;;;;;;;17.53;41.04;101323.84;7406166;19;20018;-68
2023/06/12 01:37:26;;;;;;;9.38;4.90;;;;;;;17.48;41.45;101318.72;7408142;19;20426;-68
2023/06/12 01:39:59;;;;;;;7.50;5.78;;;;;;;17.39;41.52;101319.97;7408298;19;20070;-68
2023/06/12 01:42:30;;;;;;;7.03;5.95;;;;;;;17.33;41.85;101316.69;7408271;19;20025;-68
2023/06/12 01:44:59;;;;;;;6.45;5.75;;;;;;;17.26;41.90;101316.94;7408000;19;20090;-68
2023/06/12 01:47:30;;;;;;;7.13;5.78;;;;;;;17.21;42.21;101318.03;7407804;19;20043;-68
2023/06/12 01:49:59;;;;;;;7.45;6.05;;;;;;;17.15;42.21;101323.59;7406401;19;20126;-68
2023/06/12 01:52:28;;;;;;;7.18;5.55;;;;;;;17.08;42.74;101322.97;7407344;19;20498;-68
2023/06/12 01:54:58;;;;;;;7.90;6.03;;;;;;;17.02;42.78;101323.22;7403098;19;20485;-68
2023/06/12 01:57:27;;;;;;;9.10;6.88;;;;;;;16.96;42.60;101321.69;7399609;19;20022;-68
2023/06/12 01:59:56;;;;;;;7.35;5.78;;;;;;;16.90;42.71;101324.56;7400507;19;20017;-68
2023/06/12 02:02:26;;;;;;;8.23;6.03;;;;;;;16.83;42.80;101329.19;7400407;19;20026;-69
2023/06/12 02:04:57;;;;;;;8.57;5.88;;;;;;;16.76;43.11;101325.94;7400351;19;20014;-68
2023/06/12 02:07:26;;;;;;;6.53;5.93;;;;;;;16.69;43.08;101332.38;7400697;19;20018;-68
2023/06/12 02:09:54;;;;;;;7.68;5.93;;;;;;;16.63;43.21;101329.09;7398041;19;20015;-69
2023/06/12 02:12:23;;;;;;;9.70;6.70;;;;;;;16.57;43.51;101330.22;7399483;19;20509;-68
2023/06/12 02:14:53;;;;;;;7.47;6.63;;;;;;;16.50;44.10;101331.38;7399706;19;20018;-68
2023/06/12 02:17:21;;;;;;;8.63;7.03;;;;;;;16.41;44.11;101329.91;7397298;19;20022;-67
2023/06/12 02:19:50;;;;;;;7.47;6.78;;;;;;;16.33;44.42;101332.84;7399201;19;20017;-68
2023/06/12 02:22:21;;;;;;;8.43;7.22;;;;;;;16.25;44.84;101327.84;7399285;19;20502;-68
2023/06/12 02:24:50;;;;;;;7.90;7.15;;;;;;;16.17;45.09;101332.53;7396801;19;20503;-68
2023/06/12 02:27:18;;;;;;;9.73;7.47;;;;;;;16.10;44.96;101336.34;7399532;19;20014;-68
2023/06/12 02:29:47;;;;;;;10.93;7.82;;;;;;;16.03;45.08;101334.81;7396984;19;20035;-68
2023/06/12 02:32:15;;;;;;;9.18;7.13;;;;;;;15.96;45.47;101331.50;7396973;19;20339;-68
2023/06/12 02:34:44;;;;;;;8.48;7.35;;;;;;;15.90;45.41;101340.53;7396807;19;20031;-68
2023/06/12 02:37:12;;;;;;;8.82;7.15;;;;;;;15.85;45.49;101342.47;7399185;19;20018;-68
2023/06/12 02:39:43;;;;;;;9.90;8.13;;;;;;;15.78;45.80;101338.25;7398339;19;20015;-68
2023/06/12 02:42:12;;;;;;;10.20;7.80;;;;;;;15.72;45.63;101339.34;7398715;19;20372;-68
2023/06/12 02:44:40;;;;;;;11.05;7.78;;;;;;;15.66;45.89;101342.19;7396975;19;20039;-68
2023/06/12 02:47:09;;;;;;;7.60;6.90;;;;;;;15.63;46.10;101342.28;7396819;19;20039;-68
2023/06/12 02:49:44;;;;;;;8.25;7.15;;;;;;;15.59;45.94;101341.53;7397991;19;20506;-68
2023/06/12 02:52:12;;;;;;;8.80;7.32;;;;;;;15.56;45.83;101348.72;7399389;19;20017;-68
2023/06/12 02:54:43;;;;;;;11.50;7.72;;;;;;;15.51;46.04;101348.84;7396135;19;20031;-68
2023/06/12 02:57:12;;;;;;;11.73;7.78;;;;;;;15.46;46.13;101342.84;7398323;19;20487;-68
2023/06/12 02:59:40;;;;;;;8.95;7.38;;;;;;;15.41;46.26;101343.00;7398227;19;20014;-68
2023/06/12 03:02:09;;;;;;;8.65;7.35;;;;;;;15.37;46.28;101344.03;7398394;19;20026;-68
2023/06/12 03:04:38;;;;;;;9.93;7.47;;;;;;;15.32;46.44;101344.16;7395977;19;20015;-68
2023/06/12 03:07:08;;;;;;;8.77;7.50;;;;;;;15.28;46.47;101353.09;7397783;19;20038;-68
2023/06/12 03:09:36;;;;;;;10.73;7.20;;;;;;;15.26;46.36;101346.13;7397626;19;20029;-68
2023/06/12 03:12:08;;;;;;;7.82;6.90;;;;;;;15.21;46.42;101348.91;7399478;19;20032;-68
2023/06/12 03:14:38;;;;;;;12.68;7.13;;;;;;;15.19;46.43;101347.25;7395278;19;20481;-68
2023/06/12 03:17:08;;;;;;;9.73;6.90;;;;;;;15.17;46.34;101354.38;7397741;19;20090;-69
2023/06/12 03:19:36;;;;;;;9.70;7.07;;;;;;;15.13;46.39;101354.44;7395929;19;20014;-67
2023/06/12 03:22:05;;;;;;;9.88;7.30;;;;;;;15.09;46.64;101351.94;7395847;19;20022;-68
2023/06/12 03:24:56;;;;;;;8.13;6.90;;;;;;;15.05;46.40;101358.25;7397487;19;20435;-69
2023/06/12 03:27:29;;;;;;;11.05;7.07;;;;;;;15.01;46.47;101357.47;7396907;19;20028;-68
2023/06/12 03:29:58;;;;;;;11.27;7.57;;;;;;;14.98;46.83;101363.72;7397690;19;20019;-69
2023/06/12 03:32:33;;;;;;;8.65;7.75;;;;;;;14.95;47.29;101357.66;7395347;19;20102;-69
2023/06/12 03:35:01;;;;;;;8.93;8.02;;;;;;;14.92;47.31;101361.25;7397049;19;20036;-69
2023/06/12 03:37:30;;;;;;;9.75;7.70;;;;;;;14.89;47.31;101363.16;7397066;19;20443;-69
2023/06/12 03:39:58;;;;;;;9.93;8.25;;;;;;;14.87;47.70;101362.31;7396683;19;20015;-69
2023/06/12 03:42:30;;;;;;;9.15;8.25;;;;;;;14.83;47.71;101372.94;7394891;19;20025;-69
2023/06/12 03:44:58;;;;;;;8.60;7.63;;;;;;;14.79;47.96;101365.19;7395388;19;20014;-69
2023/06/12 03:47:27;;;;;;;9.80;7.93;;;;;;;14.75;48.07;101364.41;7397126;19;20081;-70
2023/06/12 03:49:55;;;;;;;8.45;7.55;;;;;;;14.75;48.09;101369.69;7394732;19;20026;-69
2023/06/12 03:52:24;;;;;;;10.02;8.30;;;;;;;14.73;48.33;101366.22;7396363;19;20499;-68
2023/06/12 03:54:52;;;;;;;12.20;8.75;;;;;;;14.71;48.22;101365.41;7394557;19;20137;-68
2023/06/12 03:57:21;;;;;;;9.15;7.97;;;;;;;14.70;48.30;101355.75;7396057;19;20019;-68
2023/06/12 03:59:52;;;;;;;8.40;7.60;;;;;;;14.69;48.79;101372.50;7394474;19;20078;-68
2023/06/12 04:02:20;;;;;;;11.20;8.05;;;;;;;14.69;48.82;101374.28;7396133;19;20504;-69
2023/06/12 04:04:49;;;;;;;9.02;7.78;;;;;;;14.69;48.82;101374.28;7394064;19;20082;-69
2023/06/12 04:07:18;;;;;;;8.32;6.97;;;;;;;14.68;48.71;101370.78;7393890;19;20011;-69
2023/06/12 04:09:46;;;;;;;11.27;7.75;;;;;;;14.66;48.54;101364.69;7394900;19;20038;-69
2023/06/12 04:12:15;;;;;;;8.25;7.40;;;;;;;14.68;48.64;101373.41;7395363;19;20351;-69
2023/06/12 04:14:44;;;;;;;8.05;7.03;;;;;;;14.69;48.53;101379.56;7393970;19;20014;-68
2023/06/12 04:17:16;;;;;;;16.80;8.25;;;;;;;14.69;48.50;101384.84;7395377;19;20458;-68
2023/06/12 04:19:45;;;;;;;9.95;8.85;;;;;;;14.71;48.47;101377.72;7394355;19;20018;-68
2023/06/12 04:22:15;;;;;;;8.45;7.55;;;;;;;14.73;48.48;101378.56;7395491;19;20020;-69
2023/06/12 04:24:43;;;;;;;8.65;6.85;;;;;;;14.75;48.43;101379.41;7393168;19;20500;-69
2023/06/12 04:27:13;;;;;;;13.20;7.45;;;;;;;14.77;48.49;101375.81;7395017;19;20015;-69
2023/06/12 04:29:42;;;;;;;13.60;7.22;;;;;;;14.79;48.41;101384.53;7393773;19;20015;-69
2023/06/12 04:32:23;;;;;;;10.73;8.73;;;;;;;14.83;48.17;101380.88;7393819;19;20086;-69
2023/06/12 04:34:52;;;;;;;10.55;6.50;;;;;;;14.88;48.26;101385.19;7393139;19;20010;-69
2023/06/12 04:37:21;;;;;;;6.90;6.20;;;;;;;14.90;48.19;101389.50;7394513;19;20010;-69
2023/06/12 04:39:50;;;;;;;9.73;6.28;;;;;;;14.91;48.21;101371.88;7392264;19;20023;-68
2023/06/12 04:42:19;;;;;;;7.38;6.25;;;;;;;14.95;48.12;101381.41;7393819;19;20485;-69
2023/06/12 04:44:48;;;;;;;8.95;6.18;;;;;;;14.97;48.06;101376.97;7392309;19;20034;-69
2023/06/12 04:47:20;;;;;;;9.60;6.20;;;;;;;15.00;48.13;101376.91;7394654;19;20078;-68
2023/06/12 04:49:52;;;;;;;7.43;6.63;;;;;;;15.04;47.93;101385.56;7393258;19;20015;-68
2023/06/12 04:52:22;;;;;;;8.18;6.07;;;;;;;15.09;47.83;101383.66;7394806;19;20025;-69
2023/06/12 04:54:52;;;;;;;9.95;5.93;;;;;;;15.13;47.75;101388.81;7392561;19;20379;-69
2023/06/12 04:57:21;;;;;;;10.27;6.60;;;;;;;15.19;47.67;101385.13;7394456;19;20018;-69
2023/06/12 04:59:50;;;;;;;7.10;6.40;;;;;;;15.23;47.82;101386.75;7392888;19;20541;-69
2023/06/12 05:02:21;;;;;;;9.20;6.45;;;;;;;15.28;47.52;101389.25;7391259;19;20485;-67
2023/06/12 05:04:50;;;;;;;9.05;6.53;;;;;;;15.31;47.53;101384.72;7391659;19;20034;-69
2023/06/12 05:07:21;;;;;;;10.25;5.90;;;;;;;15.36;47.50;101392.53;7393026;19;20017;-71
2023/06/12 05:09:49;;;;;;;7.13;5.72;;;;;;;15.40;47.44;101386.22;7391941;19;20018;-71
2023/06/12 05:12:18;;;;;;;7.93;5.80;;;;;;;15.45;47.46;101386.06;7390927;19;20415;-69
2023/06/12 05:14:46;;;;;;;7.50;5.50;;;;;;;15.50;47.47;101388.59;7391633;19;20189;-69
2023/06/12 05:17:15;;;;;;;7.55;5.32;;;;;;;15.54;47.10;101379.63;7392523;19;20033;-69
2023/06/12 05:19:46;;;;;;;6.75;5.75;;;;;;;15.60;47.08;101379.44;7392179;19;20488;-69
2023/06/12 05:22:15;;;;;;;6.35;5.75;;;;;;;15.66;47.15;101384.53;7394828;19;20023;-70
2023/06/12 05:24:43;;;;;;;8.85;5.63;;;;;;;15.72;47.03;101389.63;7391777;19;20066;-68
2023/06/12 05:27:11;;;;;;;6.95;5.95;;;;;;;15.78;46.66;101383.25;7391269;19;20011;-68
2023/06/12 05:29:40;;;;;;;8.88;5.68;;;;;;;15.84;46.96;101388.38;7391544;19;20018;-72
2023/06/12 05:32:09;;;;;;;7.38;5.70;;;;;;;15.89;46.96;101389.06;7394578;19;20086;-68
2023/06/12 05:34:38;;;;;;;7.28;5.95;;;;;;;15.96;46.70;101381.78;7397986;19;20074;-67
2023/06/12 05:37:09;;;;;;;9.02;6.10;;;;;;;16.03;46.74;101388.59;7400443;19;20054;-68
2023/06/12 05:39:37;;;;;;;6.35;5.20;;;;;;;16.09;46.21;101382.25;7397589;19;20011;-68
2023/06/12 05:42:07;;;;;;;7.50;5.78;;;;;;;16.15;46.17;101382.03;7400879;19;20014;-69
2023/06/12 05:44:35;;;;;;;8.70;6.95;;;;;;;16.21;46.25;101381.78;7397707;19;20015;-70
2023/06/12 05:47:03;;;;;;;8.45;6.05;;;;;;;16.28;45.73;101385.09;7400820;19;20482;-68
2023/06/12 05:49:32;;;;;;;6.40;5.45;;;;;;;16.35;45.77;101383.09;7400334;19;20025;-68
2023/06/12 05:52:02;;;;;;;7.72;5.28;;;;;;;16.41;45.64;101380.22;7398483;19;20014;-68
2023/06/12 05:54:33;;;;;;;7.07;5.18;;;;;;;16.48;45.46;101392.34;7397554;19;20553;-69
2023/06/12 05:57:02;;;;;;;7.30;5.25;;;;;;;16.55;45.50;101380.59;7400301;19;20078;-67
2023/06/12 05:59:31;;;;;;;7.45;5.85;;;;;;;16.64;45.20;101378.53;7399478;19;20014;-68
2023/06/12 06:01:59;;;;;;;7.45;5.57;;;;;;;16.72;45.07;101385.28;7399858;19;20031;-67
2023/06/12 06:04:28;;;;;;;6.13;5.30;;;;;;;16.82;45.02;101384.91;7397352;19;20431;-68
2023/06/12 06:06:56;;;;;;;10.63;5.75;;;;;;;16.91;44.58;101389.91;7396778;19;20010;-67
2023/06/12 06:09:25;;;;;;;14.02;5.90;;;;;;;16.98;44.75;101382.59;7399173;19;20395;-69
2023/06/12 06:11:56;;;;;;;8.68;5.97;;;;;;;17.08;44.63;101384.81;7398281;19;20018;-67
2023/06/12 06:14:25;;;;;;;6.65;5.95;;;;;;;17.18;44.26;101385.31;7397504;19;20541;-68
2023/06/12 06:16:53;;;;;;;8.48;6.00;;;;;;;17.26;44.20;101383.25;7399726;19;20018;-68
2023/06/12 06:19:22;;;;;;;6.53;5.88;;;;;;;17.36;43.85;101389.06;7399613;19;20091;-68
2023/06/12 06:21:50;;;;;;;5.97;4.78;;;;;;;17.46;43.48;101392.19;7396325;19;20021;-68
2023/06/12 06:24:18;;;;;;;8.55;4.82;;;;;;;17.56;43.24;101385.56;7395891;19;20025;-67
2023/06/12 06:26:47;;;;;;;7.85;4.88;;;;;;;17.68;42.72;101386.00;7398219;19;20078;-69
2023/06/12 06:29:18;;;;;;;8.50;5.05;;;;;;;17.80;42.32;101390.78;7398499;19;20022;-69
2023/06/12 06:31:46;;;;;;;6.03;4.82;;;;;;;17.90;41.79;101386.81;7397065;19;20082;-68
2023/06/12 06:34:15;;;;;;;18.70;5.82;;;;;;;18.01;41.69;101389.06;7397045;19;20529;-68
2023/06/12 06:36:43;;;;;;;9.10;5.03;;;;;;;18.12;41.39;101399.22;7398817;19;20022;-68
2023/06/12 06:39:12;;;;;;;6.28;5.13;;;;;;;18.22;41.30;101387.28;7398546;19;20014;-69
2023/06/12 06:41:40;;;;;;;5.78;5.18;;;;;;;18.34;41.16;101396.50;7397324;19;20014;-69
2023/06/12 06:44:09;;;;;;;5.88;4.80;;;;;;;18.51;40.99;101400.19;7396375;19;20082;-65
2023/06/12 06:46:40;;;;;;;5.72;5.15;;;;;;;18.62;40.63;101399.72;7397576;19;20495;-68
2023/06/12 06:49:08;;;;;;;5.45;4.72;;;;;;;18.76;40.56;101405.25;7397307;19;20082;-71
2023/06/12 06:51:37;;;;;;;7.53;5.15;;;;;;;18.88;40.17;101406.50;7396359;19;20509;-68
2023/06/12 06:54:05;;;;;;;5.60;5.07;;;;;;;18.99;40.39;101412.22;7395567;19;20023;-69
2023/06/12 06:56:34;;;;;;;8.60;5.50;;;;;;;19.11;40.12;101409.91;7397805;19;20026;-70
2023/06/12 06:59:03;;;;;;;6.70;5.72;;;;;;;19.21;39.79;101409.41;7396998;19;20010;-69
2023/06/12 07:01:33;;;;;;;9.05;5.88;;;;;;;19.31;39.66;101407.16;7397329;19;20498;-68
2023/06/12 07:04:04;;;;;;;6.03;5.32;;;;;;;19.42;39.64;101408.44;7395735;19;20433;-69
2023/06/12 07:06:33;;;;;;;6.13;5.43;;;;;;;19.51;39.79;101403.53;7395162;19;20024;-67
2023/06/12 07:09:01;;;;;;;6.93;5.60;;;;;;;19.61;39.64;101411.91;7397288;19;20048;-70
2023/06/12 07:11:30;;;;;;;9.27;8.35;;;;;;;19.72;39.72;101414.06;7396392;19;20018;-69
2023/06/12 07:13:59;;;;;;;6.57;5.78;;;;;;;19.81;39.64;101407.41;7395728;19;20022;-69
2023/06/12 07:16:27;;;;;;;6.90;5.70;;;;;;;19.91;39.29;101411.38;7395044;19;20019;-68
2023/06/12 07:18:55;;;;;;;8.30;5.68;;;;;;;19.99;39.54;101409.19;7395522;19;20018;-69
2023/06/12 07:21:26;;;;;;;9.55;5.78;;;;;;;20.08;39.24;101396.34;7397549;19;20018;-69
2023/06/12 07:23:55;;;;;;;9.00;5.40;;;;;;;20.19;38.76;101404.63;7396129;19;20086;-69
2023/06/12 07:26:23;;;;;;;6.88;5.00;;;;;;;20.29;38.16;101413.00;7395075;19;20073;-69
2023/06/12 07:28:52;;;;;;;6.63;4.57;;;;;;;20.36;37.88;101406.44;7396852;19;20550;-69
2023/06/12 07:31:20;;;;;;;7.63;4.32;;;;;;;20.45;37.94;101405.09;7395878;19;20010;-68
2023/06/12 07:33:49;;;;;;;5.15;4.65;;;;;;;20.52;37.64;101411.78;7394905;19;20545;-70
2023/06/12 07:36:18;;;;;;;6.25;4.75;;;;;;;20.58;37.48;101406.13;7394632;19;20086;-69
2023/06/12 07:38:49;;;;;;;7.28;4.63;;;;;;;20.66;37.18;101411.94;7396502;19;20035;-70
2023/06/12 07:41:17;;;;;;;7.07;4.60;;;;;;;20.75;37.50;101401.72;7396839;19;20034;-69
2023/06/12 07:43:46;;;;;;;7.88;4.07;;;;;;;20.82;37.48;101400.47;7395416;19;20085;-70
2023/06/12 07:46:16;;;;;;;6.78;4.05;;;;;;;20.91;37.01;101412.44;7396089;19;20017;-69
2023/06/12 07:48:45;;;;;;;6.15;4.28;;;;;;;21.00;35.92;101401.25;7396689;19;20038;-70
2023/06/12 07:51:13;;;;;;;7.47;3.83;;;;;;;21.08;35.91;101407.03;7396009;19;20086;-70
2023/06/12 07:53:42;;;;;;;10.43;4.80;;;;;;;21.17;35.62;101403.00;7392030;19;20379;-68
2023/06/12 07:56:16;;;;;;;5.05;3.90;;;;;;;21.26;34.89;101398.94;7396324;19;20074;-68
2023/06/12 07:58:45;;;;;;;5.88;3.60;;;;;;;21.36;35.00;101399.25;7396676;19;20027;-69
2023/06/12 08:01:13;;;;;;;5.95;3.85;;;;;;;21.45;34.16;101393.41;7395412;19;20015;-70
2023/06/12 08:03:43;;;;;;;4.47;3.58;;;;;;;21.54;33.98;101400.03;7395225;19;20374;-68
2023/06/12 08:06:12;;;;;;;4.72;3.53;;;;;;;21.62;33.73;101380.00;7395531;19;20019;-69
2023/06/12 08:08:44;;;;;;;8.20;3.70;;;;;;;21.75;32.54;101392.59;7394774;19;20035;-69
2023/06/12 08:11:16;;;;;;;5.80;3.20;;;;;;;21.86;30.48;101394.66;7395875;19;20090;-69
2023/06/12 08:13:44;;;;;;;4.90;3.10;;;;;;;21.96;31.56;101387.81;7394415;19;20085;-69
2023/06/12 08:16:12;;;;;;;5.15;3.20;;;;;;;22.04;30.92;101390.00;7395376;19;20017;-69
2023/06/12 08:18:41;;;;;;;7.85;3.22;;;;;;;22.12;29.77;101401.13;7395731;19;20081;-69
2023/06/12 08:21:09;;;;;;;7.13;2.88;;;;;;;22.18;29.78;101395.41;7395594;19;20022;-69
2023/06/12 08:23:38;;;;;;;6.20;3.42;;;;;;;22.25;29.62;101391.38;7394521;19;20014;-69
2023/06/12 08:26:08;;;;;;;6.07;3.25;;;;;;;22.32;29.18;101396.34;7393400;19;20018;-69
2023/06/12 08:28:39;;;;;;;5.47;3.70;;;;;;;22.38;29.45;101396.03;7395721;19;20010;-69
2023/06/12 08:31:08;;;;;;;6.50;3.17;;;;;;;22.42;29.44;101386.88;7393336;19;20007;-69
2023/06/12 08:33:36;;;;;;;5.47;3.58;;;;;;;22.50;29.27;101381.06;7394167;19;20018;-70
2023/06/12 08:36:05;;;;;;;7.13;3.33;;;;;;;22.56;29.28;101378.84;7395127;19;20070;-70
2023/06/12 08:38:33;;;;;;;8.38;3.67;;;;;;;22.65;29.38;101385.44;7395046;19;20013;-70
2023/06/12 08:41:04;;;;;;;6.25;3.50;;;;;;;22.72;29.69;101372.53;7395123;19;20025;-69
2023/06/12 08:43:33;;;;;;;4.82;3.50;;;;;;;22.78;29.69;101388.19;7394103;19;20429;-69
2023/06/12 08:46:07;;;;;;;5.13;3.55;;;;;;;22.84;29.08;101371.75;7395163;19;20077;-69
2023/06/12 08:48:35;;;;;;;;;;;;;;;22.89;29.64;101371.47;7396075;19;20032;-69
2023/06/12 08:51:04;;;;;;;6.35;3.90;;;;;;;22.95;29.44;101368.41;7395776;19;19915;-68
2023/06/12 08:53:34;;;;;;;4.40;3.22;;;;;;;23.01;29.46;101373.34;7393016;19;20034;-70
2023/06/12 08:56:02;;;;;;;5.15;3.72;;;;;;;23.09;29.52;101373.72;7394322;19;20025;-69
2023/06/12 08:58:31;;;;;;;5.05;3.40;;;;;;;23.16;30.16;101370.69;7394182;19;20415;-70
2023/06/12 09:01:01;;;;;;;6.20;3.92;;;;;;;23.23;29.85;101374.69;7394207;19;20021;-69
2023/06/12 09:03:35;;;;;;;6.57;4.05;;;;;;;23.32;29.84;101370.53;7392971;19;20014;-69
2023/06/12 09:06:05;;;;;;;6.68;3.75;;;;;;;23.39;30.03;101374.50;7400123;19;20050;-70
2023/06/12 09:08:35;;;;;;;4.70;3.63;;;;;;;23.46;30.15;101369.63;7402052;19;20019;-69
2023/06/12 09:11:04;;;;;;;7.03;3.80;;;;;;;23.52;30.34;101370.06;7402166;19;20046;-69
2023/06/12 09:13:41;;;;;;;5.18;3.35;;;;;;;23.55;30.31;101359.13;7398788;19;20018;-72
2023/06/12 09:16:17;;;;;;;4.97;3.63;;;;;;;23.58;30.34;101358.06;7401342;19;20087;-70
2023/06/12 09:19:02;;;;;;;4.38;3.45;;;;;;;23.59;30.36;101368.69;7401329;19;20095;-69
2023/06/12 09:21:30;;;;;;;5.20;3.50;;;;;;;23.62;30.83;101358.72;7400523;19;20102;-70
2023/06/12 09:23:59;;;;;;;4.60;3.40;;;;;;;23.68;30.51;101366.34;7398678;19;20098;-68
2023/06/12 09:26:27;;;;;;;4.28;3.50;;;;;;;23.77;30.49;101367.56;7400671;19;20553;-69
2023/06/12 09:28:56;;;;;;;5.28;3.22;;;;;;;23.87;30.61;101364.16;7401422;19;20018;-70
2023/06/12 09:31:25;;;;;;;5.13;3.42;;;;;;;23.97;30.36;101364.38;7397840;19;20007;-69
2023/06/12 09:33:58;;;;;;;3.53;3.13;;;;;;;24.06;30.16;101357.53;7397502;19;20021;-70
2023/06/12 09:36:31;;;;;;;5.10;3.40;;;;;;;24.15;30.59;101359.59;7399892;19;20545;-69
2023/06/12 09:39:00;;;;;;;5.13;3.60;;;;;;;24.20;30.32;101370.84;7400871;19;20022;-68
2023/06/12 09:41:29;;;;;;;7.18;4.38;;;;;;;24.22;30.13;101362.72;7400714;19;20015;-68
2023/06/12 09:44:04;;;;;;;5.70;4.53;;;;;;;24.24;29.86;101356.25;7397325;19;20081;-68
2023/06/12 09:46:33;;;;;;;5.15;4.50;;;;;;;24.25;29.76;101354.44;7400744;19;20010;-70
2023/06/12 09:49:06;;;;;;;5.10;3.60;;;;;;;24.27;30.03;101357.03;7397899;19;20023;-68
2023/06/12 09:51:35;;;;;;;7.20;4.07;;;;;;;24.30;30.18;101355.00;7400685;19;20039;-68
2023/06/12 09:54:07;;;;;;;7.10;4.22;;;;;;;24.40;30.39;101357.88;7398859;19;20019;-68
2023/06/12 09:56:36;;;;;;;6.35;3.67;;;;;;;24.52;30.58;101364.19;7403702;19;20078;-68
2023/06/12 09:59:06;;;;;;;3.63;3.10;;;;;;;24.63;30.63;101350.88;7399479;19;20549;-69
2023/06/12 10:01:39;;;;;;;8.80;4.25;;;;;;;24.74;30.46;101346.59;7397433;19;20010;-69
2023/06/12 10:04:15;;;;;;;5.03;3.45;;;;;;;24.83;30.30;101360.22;7396861;19;20022;-68
2023/06/12 10:06:45;;;;;;;5.00;3.78;;;;;;;24.94;30.21;101353.19;7399435;19;20011;-71
2023/06/12 10:09:15;;;;;;;5.05;4.22;;;;;;;25.03;30.27;101349.81;7399236;19;20448;-72
2023/06/12 10:11:44;;;;;;;5.32;4.05;;;;;;;25.12;29.88;101354.50;7399235;19;20017;-71
2023/06/12 10:14:13;;;;;;;6.15;4.13;;;;;;;25.19;29.63;101355.78;7396624;19;20018;-72
2023/06/12 10:16:45;;;;;;;6.18;4.30;;;;;;;25.30;29.66;101357.66;7397407;19;20018;-70
2023/06/12 10:19:17;;;;;;;5.95;4.05;;;;;;;25.40;29.12;101352.47;7399993;19;20011;-69
2023/06/12 10:21:47;;;;;;;8.07;4.20;;;;;;;25.46;29.27;101353.84;7400143;19;20020;-69
2023/06/12 10:24:15;;;;;;;5.20;4.25;;;;;;;25.55;29.74;101355.00;7396857;19;20021;-68
2023/06/12 10:26:44;;;;;;;7.50;4.70;;;;;;;25.63;29.35;101347.19;7398451;19;20078;-68
2023/06/12 10:29:38;;;;;;;5.45;4.25;;;;;;;25.73;28.46;101345.53;7398265;19;20017;-69
2023/06/12 10:32:08;;;;;;;5.18;3.80;;;;;;;25.83;28.90;101348.34;7396383;19;20375;-69
2023/06/12 10:34:44;;;;;;;7.22;4.53;;;;;;;25.91;27.94;101337.00;7397012;19;20552;-69
2023/06/12 10:37:27;;;;;;;5.72;3.88;;;;;;;25.95;28.19;101347.41;7397150;19;20026;-69
2023/06/12 10:40:12;;;;;;;8.48;3.80;;;;;;;25.97;28.24;101347.28;7396141;19;20026;-69
2023/06/12 10:42:51;;;;;;;7.80;3.80;;;;;;;25.90;28.83;101348.75;7398385;19;20022;-68
2023/06/12 10:45:21;;;;;;;5.32;3.58;;;;;;;25.84;28.81;101342.88;7398744;19;20059;-69
2023/06/12 10:48:17;;;;;;;5.85;4.03;;;;;;;25.86;28.63;101337.38;7397647;19;20014;-68
2023/06/12 10:50:51;;;;;;;8.07;3.65;;;;;;;25.88;28.88;101335.41;7395863;19;20355;-69
2023/06/12 10:53:23;;;;;;;6.63;3.47;;;;;;;25.94;28.55;101329.56;7395926;19;20019;-69
2023/06/12 10:55:58;;;;;;;7.35;3.35;;;;;;;26.01;28.59;101338.03;7400712;19;20074;-69
2023/06/12 10:58:27;;;;;;;5.50;3.45;;;;;;;26.06;28.53;101326.94;7398261;19;20018;-68
2023/06/12 11:00:56;;;;;;;5.90;4.32;;;;;;;26.11;28.22;101328.28;7395942;19;20030;-69
2023/06/12 11:03:28;;;;;;;9.80;5.43;;;;;;;26.20;27.63;101318.66;7395303;19;20015;-69
2023/06/12 11:06:01;;;;;;;8.17;4.60;;;;;;;26.32;27.39;101316.81;7399026;19;20007;-69
2023/06/12 11:08:30;;;;;;;;;;;;;;;26.38;26.69;101304.72;7398372;19;20495;-70
2023/06/12 11:10:58;;;;;;;3.83;3.40;;;;;;;26.45;27.56;101308.59;7397263;19;19923;-69
2023/06/12 11:13:28;;;;;;;5.82;3.88;;;;;;;26.51;27.13;101300.03;7395783;19;20094;-69
2023/06/12 11:15:57;;;;;;;5.03;3.78;;;;;;;26.61;26.72;101303.69;7396969;19;20094;-69
2023/06/12 11:18:25;;;;;;;3.78;3.22;;;;;;;26.69;26.86;101289.63;7394645;19;20554;-69
2023/06/12 11:20:55;;;;;;;13.25;3.47;;;;;;;26.71;26.44;101287.66;7394858;19;20082;-69
2023/06/12 11:23:28;;;;;;;5.75;3.65;;;;;;;26.64;26.17;101284.63;7394145;19;20050;-67
2023/06/12 11:25:59;;;;;;;5.20;3.85;;;;;;;26.62;26.10;101285.72;7396986;19;20018;-69
2023/06/12 11:28:30;;;;;;;4.05;3.55;;;;;;;26.63;26.38;101287.44;7397330;19;20014;-71
2023/06/12 11:30:58;;;;;;;4.15;3.40;;;;;;;26.73;26.03;101284.81;7397335;19;20411;-69
2023/06/12 11:33:27;;;;;;;4.72;3.30;;;;;;;26.83;25.95;101281.31;7395115;19;20021;-69
2023/06/12 11:36:01;;;;;;;7.35;3.17;;;;;;;26.99;25.68;101267.44;7396506;19;20021;-69
2023/06/12 11:38:32;;;;;;;6.72;3.58;;;;;;;27.16;25.46;101284.00;7394606;19;20018;-69